sensor_id;sensor_type;location;lat;lon;timestamp;pressure;altitude;pressure_sealevel;temperature;humidity
50652;BME280;66928;52.086;5.240;2023-03-13T06:31:37;99453.0;;;13.46;86.16
50652;BME280;66928;52.086;5.240;2023-03-13T06:34:49;99453.0;;;13.39;86.47
50652;BME280;66928;52.086;5.240;2023-03-13T06:36:25;99459.0;;;13.47;86.1
50652;BME280;66928;52.086;5.240;2023-03-13T06:38:01;99455.0;;;13.53;85.79
50652;BME280;66928;52.086;5.240;2023-03-13T06:39:37;99446.0;;;13.52;85.29
50652;BME280;66928;52.086;5.240;2023-03-13T06:42:50;99453.0;;;13.46;85.76
50652;BME280;66928;52.086;5.240;2023-03-13T06:44:26;99452.0;;;13.47;85.58
50652;BME280;66928;52.086;5.240;2023-03-13T06:46:03;99455.0;;;13.49;85.77
50652;BME280;66928;52.086;5.240;2023-03-13T06:49:15;99443.0;;;13.56;85.17
50652;BME280;66928;52.086;5.240;2023-03-13T06:50:51;99455.0;;;13.54;85.13
50652;BME280;66928;52.086;5.240;2023-03-13T06:52:27;99456.0;;;13.57;84.89
50652;BME280;66928;52.086;5.240;2023-03-13T06:55:40;99465.0;;;13.6;85.03
50652;BME280;66928;52.086;5.240;2023-03-13T06:57:16;99455.0;;;13.56;84.97
50652;BME280;66928;52.086;5.240;2023-03-13T06:58:52;99460.0;;;13.45;85.81
50652;BME280;66928;52.086;5.240;2023-03-13T07:02:05;99447.0;;;13.46;85.94
50652;BME280;66928;52.086;5.240;2023-03-13T07:03:42;99438.0;;;13.48;85.89
50652;BME280;66928;52.086;5.240;2023-03-13T07:05:18;99456.0;;;13.47;86.3
50652;BME280;66928;52.086;5.240;2023-03-13T07:06:54;99450.0;;;13.58;86.54
50652;BME280;66928;52.086;5.240;2023-03-13T07:10:09;99455.0;;;13.51;87.15
50652;BME280;66928;52.086;5.240;2023-03-13T07:11:46;99455.0;;;13.53;87.34
50652;BME280;66928;52.086;5.240;2023-03-13T07:13:22;99469.0;;;13.41;88.82
50652;BME280;66928;52.086;5.240;2023-03-13T07:16:34;99468.0;;;13.36;89.69
50652;BME280;66928;52.086;5.240;2023-03-13T07:18:10;99468.0;;;13.25;90.72
50652;BME280;66928;52.086;5.240;2023-03-13T07:19:46;99460.0;;;13.15;91.68
50652;BME280;66928;52.086;5.240;2023-03-13T07:22:58;99458.0;;;13.26;91.39
50652;BME280;66928;52.086;5.240;2023-03-13T07:24:34;99466.0;;;13.16;91.86
50652;BME280;66928;52.086;5.240;2023-03-13T07:26:12;99476.0;;;13.25;91.8
50652;BME280;66928;52.086;5.240;2023-03-13T07:27:49;99464.0;;;13.12;92.35
50652;BME280;66928;52.086;5.240;2023-03-13T07:31:04;99470.0;;;13.23;92.26
50652;BME280;66928;52.086;5.240;2023-03-13T07:32:41;99462.0;;;13.25;92.42
50652;BME280;66928;52.086;5.240;2023-03-13T07:34:17;99453.0;;;13.18;92.89
50652;BME280;66928;52.086;5.240;2023-03-13T07:37:29;99466.0;;;13.01;93.77
50652;BME280;66928;52.086;5.240;2023-03-13T07:39:05;99467.0;;;13.04;93.88
50652;BME280;66928;52.086;5.240;2023-03-13T07:40:47;99475.0;;;13.17;93.94
50652;BME280;66928;52.086;5.240;2023-03-13T07:42:23;99471.0;;;13.1;93.81
50652;BME280;66928;52.086;5.240;2023-03-13T07:45:36;99474.0;;;13.03;94.21
50652;BME280;66928;52.086;5.240;2023-03-13T07:47:12;99471.0;;;13.16;93.75
50652;BME280;66928;52.086;5.240;2023-03-13T07:48:48;99488.0;;;13.02;93.87
50652;BME280;66928;52.086;5.240;2023-03-13T07:52:00;99494.0;;;13.05;93.86
50652;BME280;66928;52.086;5.240;2023-03-13T07:53:36;99486.0;;;13.09;94.48
50652;BME280;66928;52.086;5.240;2023-03-13T07:55:12;99490.0;;;13.19;94.14
50652;BME280;66928;52.086;5.240;2023-03-13T07:58:26;99497.0;;;13.15;94.18
50652;BME280;66928;52.086;5.240;2023-03-13T08:00:04;99491.0;;;13.09;93.95
50652;BME280;66928;52.086;5.240;2023-03-13T08:01:40;99468.0;;;13.05;93.91
50652;BME280;66928;52.086;5.240;2023-03-13T08:03:16;99483.0;;;13.12;93.07
50652;BME280;66928;52.086;5.240;2023-03-13T08:06:31;99483.0;;;13.08;93.07
50652;BME280;66928;52.086;5.240;2023-03-13T08:08:08;99472.0;;;13.01;93.28
50652;BME280;66928;52.086;5.240;2023-03-13T08:09:44;99480.0;;;13.13;92.83
50652;BME280;66928;52.086;5.240;2023-03-13T08:12:59;99474.0;;;13.08;93.93
50652;BME280;66928;52.086;5.240;2023-03-13T08:14:35;99470.0;;;13.02;94.71
50652;BME280;66928;52.086;5.240;2023-03-13T08:16:13;99472.0;;;13.2;94.58
50652;BME280;66928;52.086;5.240;2023-03-13T08:19:27;99482.0;;;13.2;94.53
50652;BME280;66928;52.086;5.240;2023-03-13T08:21:04;99469.0;;;13.24;94.72
50652;BME280;66928;52.086;5.240;2023-03-13T08:22:41;99472.0;;;13.14;95.8
50652;BME280;66928;52.086;5.240;2023-03-13T08:24:18;99469.0;;;13.13;95.99
50652;BME280;66928;52.086;5.240;2023-03-13T08:27:30;99466.0;;;13.06;96.55
50652;BME280;66928;52.086;5.240;2023-03-13T08:29:08;99461.0;;;13.24;95.95
50652;BME280;66928;52.086;5.240;2023-03-13T08:30:45;99432.0;;;13.02;95.47
50652;BME280;66928;52.086;5.240;2023-03-13T08:33:58;99450.0;;;13.13;95.64
50652;BME280;66928;52.086;5.240;2023-03-13T08:35:35;99461.0;;;13.11;95.83
50652;BME280;66928;52.086;5.240;2023-03-13T08:37:14;99441.0;;;13.21;95.6
50652;BME280;66928;52.086;5.240;2023-03-13T08:38:51;99436.0;;;13.09;95.68
50652;BME280;66928;52.086;5.240;2023-03-13T08:42:06;99426.0;;;13.06;95.22
50652;BME280;66928;52.086;5.240;2023-03-13T08:43:44;99419.0;;;13.08;95.1
50652;BME280;66928;52.086;5.240;2023-03-13T08:45:21;99430.0;;;13.33;94.45
50652;BME280;66928;52.086;5.240;2023-03-13T08:48:33;99423.0;;;13.4;93.81
50652;BME280;66928;52.086;5.240;2023-03-13T08:50:10;99416.0;;;13.28;92.82
50652;BME280;66928;52.086;5.240;2023-03-13T08:51:46;99413.0;;;13.34;92.51
50652;BME280;66928;52.086;5.240;2023-03-13T08:54:58;99410.0;;;13.39;92.25
50652;BME280;66928;52.086;5.240;2023-03-13T08:56:35;99405.0;;;13.35;92.46
50652;BME280;66928;52.086;5.240;2023-03-13T08:58:11;99408.0;;;13.33;92.16
50652;BME280;66928;52.086;5.240;2023-03-13T08:59:48;99409.0;;;13.38;91.87
50652;BME280;66928;52.086;5.240;2023-03-13T09:03:03;99415.0;;;13.46;91.74
50652;BME280;66928;52.086;5.240;2023-03-13T09:04:39;99415.0;;;13.4;90.9
50652;BME280;66928;52.086;5.240;2023-03-13T09:06:16;99420.0;;;13.3;91.25
50652;BME280;66928;52.086;5.240;2023-03-13T09:09:28;99425.0;;;13.47;89.8
50652;BME280;66928;52.086;5.240;2023-03-13T09:11:07;99412.0;;;13.44;89.6
50652;BME280;66928;52.086;5.240;2023-03-13T09:12:44;99406.0;;;13.55;88.86
50652;BME280;66928;52.086;5.240;2023-03-13T09:15:57;99381.0;;;13.53;88.17
50652;BME280;66928;52.086;5.240;2023-03-13T09:17:34;99382.0;;;13.6;88.19
50652;BME280;66928;52.086;5.240;2023-03-13T09:19:10;99380.0;;;13.71;86.91
50652;BME280;66928;52.086;5.240;2023-03-13T09:20:46;99388.0;;;13.82;87.23
50652;BME280;66928;52.086;5.240;2023-03-13T09:24:00;99378.0;;;13.97;85.84
50652;BME280;66928;52.086;5.240;2023-03-13T09:25:36;99371.0;;;14.04;85.1
50652;BME280;66928;52.086;5.240;2023-03-13T09:27:13;99373.0;;;14.07;84.84
50652;BME280;66928;52.086;5.240;2023-03-13T09:30:26;99367.0;;;14.12;83.87
50652;BME280;66928;52.086;5.240;2023-03-13T09:32:03;99360.0;;;14.15;83.29
50652;BME280;66928;52.086;5.240;2023-03-13T09:33:39;99356.0;;;14.23;82.89
50652;BME280;66928;52.086;5.240;2023-03-13T09:36:52;99359.0;;;14.33;81.86
50652;BME280;66928;52.086;5.240;2023-03-13T09:38:28;99347.0;;;14.43;81.27
50652;BME280;66928;52.086;5.240;2023-03-13T09:40:05;99356.0;;;14.46;81.08
50652;BME280;66928;52.086;5.240;2023-03-13T09:41:44;99364.0;;;14.53;80.72
50652;BME280;66928;52.086;5.240;2023-03-13T09:45:18;99357.0;;;14.6;79.86
50652;BME280;66928;52.086;5.240;2023-03-13T09:47:12;99350.0;;;14.62;79.86
50652;BME280;66928;52.086;5.240;2023-03-13T09:48:54;99330.0;;;14.62;79.3
50652;BME280;66928;52.086;5.240;2023-03-13T09:50:33;99348.0;;;14.77;79.27
50652;BME280;66928;52.086;5.240;2023-03-13T09:52:16;99332.0;;;14.77;78.78
50652;BME280;66928;52.086;5.240;2023-03-13T09:55:36;99332.0;;;14.78;78.47
50652;BME280;66928;52.086;5.240;2023-03-13T09:57:19;99317.0;;;14.8;78.02
50652;BME280;66928;52.086;5.240;2023-03-13T09:59:03;99322.0;;;14.82;77.44
50652;BME280;66928;52.086;5.240;2023-03-13T10:00:47;99322.0;;;14.98;77.27
50652;BME280;66928;52.086;5.240;2023-03-13T10:04:18;99321.0;;;14.96;77.14
50652;BME280;66928;52.086;5.240;2023-03-13T10:06:03;99310.0;;;15.04;75.94
50652;BME280;66928;52.086;5.240;2023-03-13T10:07:41;99309.0;;;15.1;75.86
50652;BME280;66928;52.086;5.240;2023-03-13T10:09:21;99305.0;;;15.25;75.22
50652;BME280;66928;52.086;5.240;2023-03-13T10:11:09;99281.0;;;15.36;75.16
50652;BME280;66928;52.086;5.240;2023-03-13T10:14:29;99290.0;;;15.39;74.87
50652;BME280;66928;52.086;5.240;2023-03-13T10:16:09;99294.0;;;15.43;73.56
50652;BME280;66928;52.086;5.240;2023-03-13T10:17:47;99292.0;;;15.58;73.24
50652;BME280;66928;52.086;5.240;2023-03-13T10:19:27;99293.0;;;15.68;73.3
50652;BME280;66928;52.086;5.240;2023-03-13T10:22:57;99285.0;;;15.62;72.36
50652;BME280;66928;52.086;5.240;2023-03-13T10:24:40;99283.0;;;15.66;72.63
50652;BME280;66928;52.086;5.240;2023-03-13T10:26:23;99270.0;;;15.65;72.03
50652;BME280;66928;52.086;5.240;2023-03-13T10:28:01;99284.0;;;15.66;70.74
50652;BME280;66928;52.086;5.240;2023-03-13T10:31:20;99291.0;;;15.52;70.13
50652;BME280;66928;52.086;5.240;2023-03-13T10:33:17;99295.0;;;15.56;70.8
50652;BME280;66928;52.086;5.240;2023-03-13T10:34:56;99292.0;;;15.51;71.33
50652;BME280;66928;52.086;5.240;2023-03-13T10:36:39;99285.0;;;15.55;71.14
50652;BME280;66928;52.086;5.240;2023-03-13T10:38:18;99301.0;;;15.57;71.2
50652;BME280;66928;52.086;5.240;2023-03-13T10:41:54;99297.0;;;15.55;69.42
50652;BME280;66928;52.086;5.240;2023-03-13T10:43:32;99294.0;;;15.51;68.36
50652;BME280;66928;52.086;5.240;2023-03-13T10:45:14;99295.0;;;15.48;69.06
50652;BME280;66928;52.086;5.240;2023-03-13T10:46:51;99264.0;;;15.44;68.19
50652;BME280;66928;52.086;5.240;2023-03-13T10:50:17;99273.0;;;15.43;68.31
50652;BME280;66928;52.086;5.240;2023-03-13T10:52:00;99289.0;;;15.45;68.78
50652;BME280;66928;52.086;5.240;2023-03-13T10:53:36;99305.0;;;15.5;69.11
50652;BME280;66928;52.086;5.240;2023-03-13T10:55:16;99281.0;;;15.44;69.11
50652;BME280;66928;52.086;5.240;2023-03-13T10:57:08;99288.0;;;15.42;69.13
50652;BME280;66928;52.086;5.240;2023-03-13T11:00:29;99266.0;;;15.34;68.7
50652;BME280;66928;52.086;5.240;2023-03-13T11:02:21;99276.0;;;15.41;69.03
50652;BME280;66928;52.086;5.240;2023-03-13T11:03:58;99273.0;;;15.53;68.16
50652;BME280;66928;52.086;5.240;2023-03-13T11:05:55;99269.0;;;15.62;67.27
50652;BME280;66928;52.086;5.240;2023-03-13T11:07:34;99273.0;;;15.65;67.34
50652;BME280;66928;52.086;5.240;2023-03-13T11:10:53;99278.0;;;15.79;66.55
50652;BME280;66928;52.086;5.240;2023-03-13T11:12:33;99268.0;;;15.77;65.91
50652;BME280;66928;52.086;5.240;2023-03-13T11:14:13;99246.0;;;15.9;65.27
50652;BME280;66928;52.086;5.240;2023-03-13T11:15:53;99241.0;;;15.82;64.6
50652;BME280;66928;52.086;5.240;2023-03-13T11:19:22;99251.0;;;15.88;63.57
50652;BME280;66928;52.086;5.240;2023-03-13T11:21:31;99252.0;;;15.93;63.35
50652;BME280;66928;52.086;5.240;2023-03-13T11:23:19;99255.0;;;16.07;63.22
50652;BME280;66928;52.086;5.240;2023-03-13T11:25:12;99257.0;;;16.09;62.73
50652;BME280;66928;52.086;5.240;2023-03-13T11:26:56;99264.0;;;16.21;62.52
50652;BME280;66928;52.086;5.240;2023-03-13T11:28:46;99251.0;;;16.25;61.84
50652;BME280;66928;52.086;5.240;2023-03-13T11:30:54;99240.0;;;16.16;61.93
50652;BME280;66928;52.086;5.240;2023-03-13T11:32:51;99236.0;;;16.04;61.81
50652;BME280;66928;52.086;5.240;2023-03-13T11:36:20;99223.0;;;16.18;61.66
50652;BME280;66928;52.086;5.240;2023-03-13T11:37:59;99234.0;;;16.3;60.58
50652;BME280;66928;52.086;5.240;2023-03-13T11:39:51;99255.0;;;16.46;60.51
50652;BME280;66928;52.086;5.240;2023-03-13T11:41:41;99235.0;;;16.55;60.71
50652;BME280;66928;52.086;5.240;2023-03-13T11:43:34;99249.0;;;16.72;60.2
50652;BME280;66928;52.086;5.240;2023-03-13T11:46:14;99240.0;;;16.77;59.72
50652;BME280;66928;52.086;5.240;2023-03-13T11:48:39;99230.0;;;16.65;60.13
50652;BME280;66928;52.086;5.240;2023-03-13T11:50:30;99236.0;;;16.7;60.06
50652;BME280;66928;52.086;5.240;2023-03-13T11:52:20;99242.0;;;16.87;59.98
50652;BME280;66928;52.086;5.240;2023-03-13T11:54:21;99226.0;;;16.79;60.2
50652;BME280;66928;52.086;5.240;2023-03-13T11:57:06;99235.0;;;16.75;60.68
50652;BME280;66928;52.086;5.240;2023-03-13T11:58:59;99240.0;;;16.75;60.71
50652;BME280;66928;52.086;5.240;2023-03-13T12:00:46;99211.0;;;16.65;60.61
50652;BME280;66928;52.086;5.240;2023-03-13T12:02:30;99216.0;;;16.5;60.49
50652;BME280;66928;52.086;5.240;2023-03-13T12:04:13;99217.0;;;16.57;60.85
50652;BME280;66928;52.086;5.240;2023-03-13T12:07:35;99227.0;;;16.5;61.11
50652;BME280;66928;52.086;5.240;2023-03-13T12:09:19;99217.0;;;16.46;60.26
50652;BME280;66928;52.086;5.240;2023-03-13T12:11:07;99228.0;;;16.34;59.41
50652;BME280;66928;52.086;5.240;2023-03-13T12:12:50;99202.0;;;16.46;59.59
50652;BME280;66928;52.086;5.240;2023-03-13T12:14:32;99210.0;;;16.5;59.63
50652;BME280;66928;52.086;5.240;2023-03-13T12:17:58;99224.0;;;16.59;59.33
50652;BME280;66928;52.086;5.240;2023-03-13T12:19:43;99215.0;;;16.53;58.41
50652;BME280;66928;52.086;5.240;2023-03-13T12:21:27;99214.0;;;16.55;57.15
50652;BME280;66928;52.086;5.240;2023-03-13T12:23:16;99197.0;;;16.59;56.56
50652;BME280;66928;52.086;5.240;2023-03-13T12:24:56;99197.0;;;16.54;56.75
50652;BME280;66928;52.086;5.240;2023-03-13T12:28:25;99202.0;;;16.68;56.46
50652;BME280;66928;52.086;5.240;2023-03-13T12:30:10;99210.0;;;16.78;56.14
50652;BME280;66928;52.086;5.240;2023-03-13T12:31:57;99217.0;;;16.86;55.31
50652;BME280;66928;52.086;5.240;2023-03-13T12:33:40;99209.0;;;16.88;54.83
50652;BME280;66928;52.086;5.240;2023-03-13T12:35:20;99205.0;;;16.84;54.21
50652;BME280;66928;52.086;5.240;2023-03-13T12:38:48;99205.0;;;16.89;54.48
50652;BME280;66928;52.086;5.240;2023-03-13T12:42:21;99209.0;;;16.95;53.8
50652;BME280;66928;52.086;5.240;2023-03-13T12:44:13;99203.0;;;17.02;55.25
50652;BME280;66928;52.086;5.240;2023-03-13T12:46:09;99200.0;;;16.97;55.17
50652;BME280;66928;52.086;5.240;2023-03-13T12:48:17;99193.0;;;17.02;54.91
50652;BME280;66928;52.086;5.240;2023-03-13T12:51:41;99195.0;;;16.87;55.27
50652;BME280;66928;52.086;5.240;2023-03-13T12:53:36;99200.0;;;16.96;55.13
50652;BME280;66928;52.086;5.240;2023-03-13T12:55:42;99170.0;;;16.9;55.13
50652;BME280;66928;52.086;5.240;2023-03-13T12:58:04;99199.0;;;16.72;55.6
50652;BME280;66928;52.086;5.240;2023-03-13T13:00:40;99200.0;;;16.78;56.21
50652;BME280;66928;52.086;5.240;2023-03-13T13:03:59;99181.0;;;16.79;56.46
50652;BME280;66928;52.086;5.240;2023-03-13T13:05:37;99188.0;;;16.87;56.17
50652;BME280;66928;52.086;5.240;2023-03-13T13:07:29;99196.0;;;16.84;56.42
50652;BME280;66928;52.086;5.240;2023-03-13T13:09:21;99181.0;;;16.98;56.0
50652;BME280;66928;52.086;5.240;2023-03-13T13:11:37;99156.0;;;16.86;56.59
50652;BME280;66928;52.086;5.240;2023-03-13T13:13:29;99177.0;;;16.77;56.75
50652;BME280;66928;52.086;5.240;2023-03-13T13:15:17;99161.0;;;16.75;56.91
50652;BME280;66928;52.086;5.240;2023-03-13T13:18:49;99166.0;;;16.68;57.36
50652;BME280;66928;52.086;5.240;2023-03-13T13:20:30;99167.0;;;16.59;57.36
50652;BME280;66928;52.086;5.240;2023-03-13T13:23:31;99163.0;;;16.52;57.11
50652;BME280;66928;52.086;5.240;2023-03-13T13:25:29;99146.0;;;16.45;57.41
50652;BME280;66928;52.086;5.240;2023-03-13T13:27:27;99159.0;;;16.5;57.09
50652;BME280;66928;52.086;5.240;2023-03-13T13:29:52;99153.0;;;16.48;57.12
50652;BME280;66928;52.086;5.240;2023-03-13T13:31:54;99145.0;;;16.23;55.2
50652;BME280;66928;52.086;5.240;2023-03-13T13:33:35;99142.0;;;16.3;53.68
50652;BME280;66928;52.086;5.240;2023-03-13T13:35:31;99140.0;;;16.25;53.72
50652;BME280;66928;52.086;5.240;2023-03-13T13:37:25;99148.0;;;16.22;53.57
50652;BME280;66928;52.086;5.240;2023-03-13T13:39:21;99146.0;;;16.25;53.12
50652;BME280;66928;52.086;5.240;2023-03-13T13:41:23;99132.0;;;16.32;53.35
50652;BME280;66928;52.086;5.240;2023-03-13T13:43:20;99141.0;;;16.36;53.61
50652;BME280;66928;52.086;5.240;2023-03-13T13:44:59;99132.0;;;16.37;53.55
50652;BME280;66928;52.086;5.240;2023-03-13T13:46:43;99139.0;;;16.45;53.47
50652;BME280;66928;52.086;5.240;2023-03-13T13:50:17;99147.0;;;16.52;53.35
50652;BME280;66928;52.086;5.240;2023-03-13T13:52:18;99141.0;;;16.5;52.97
50652;BME280;66928;52.086;5.240;2023-03-13T13:58:10;99130.0;;;16.38;53.19
50652;BME280;66928;52.086;5.240;2023-03-13T13:59:49;99149.0;;;16.27;53.33
50652;BME280;66928;52.086;5.240;2023-03-13T14:01:27;99153.0;;;16.23;53.63
50652;BME280;66928;52.086;5.240;2023-03-13T14:03:16;99156.0;;;16.47;53.13
50652;BME280;66928;52.086;5.240;2023-03-13T14:06:37;99147.0;;;16.47;52.81
50652;BME280;66928;52.086;5.240;2023-03-13T14:08:18;99155.0;;;16.62;52.37
50652;BME280;66928;52.086;5.240;2023-03-13T14:10:03;99139.0;;;16.53;52.71
50652;BME280;66928;52.086;5.240;2023-03-13T14:11:41;99136.0;;;16.38;52.77
50652;BME280;66928;52.086;5.240;2023-03-13T14:15:14;99124.0;;;16.25;53.26
50652;BME280;66928;52.086;5.240;2023-03-13T14:16:53;99127.0;;;16.27;53.37
50652;BME280;66928;52.086;5.240;2023-03-13T14:18:30;99126.0;;;16.25;53.57
50652;BME280;66928;52.086;5.240;2023-03-13T14:20:19;99145.0;;;16.31;53.49
50652;BME280;66928;52.086;5.240;2023-03-13T14:22:05;99138.0;;;16.15;53.65
50652;BME280;66928;52.086;5.240;2023-03-13T14:25:20;99120.0;;;16.06;53.57
50652;BME280;66928;52.086;5.240;2023-03-13T14:26:58;99123.0;;;16.04;53.74
50652;BME280;66928;52.086;5.240;2023-03-13T14:28:39;99120.0;;;16.25;53.69
50652;BME280;66928;52.086;5.240;2023-03-13T14:30:17;99113.0;;;16.31;53.82
50652;BME280;66928;52.086;5.240;2023-03-13T14:33:33;99115.0;;;16.3;53.9
50652;BME280;66928;52.086;5.240;2023-03-13T14:35:13;99112.0;;;16.34;53.25
50652;BME280;66928;52.086;5.240;2023-03-13T14:36:53;99114.0;;;16.29;53.5
50652;BME280;66928;52.086;5.240;2023-03-13T14:40:18;99114.0;;;16.27;53.46
50652;BME280;66928;52.086;5.240;2023-03-13T14:41:54;99119.0;;;16.29;53.45
50652;BME280;66928;52.086;5.240;2023-03-13T14:43:40;99092.0;;;16.25;53.19
50652;BME280;66928;52.086;5.240;2023-03-13T14:45:21;99103.0;;;16.36;53.21
50652;BME280;66928;52.086;5.240;2023-03-13T14:48:39;99086.0;;;16.37;53.44
50652;BME280;66928;52.086;5.240;2023-03-13T14:50:16;99105.0;;;16.2;53.68
50652;BME280;66928;52.086;5.240;2023-03-13T14:51:58;99106.0;;;16.15;53.93
50652;BME280;66928;52.086;5.240;2023-03-13T14:53:36;99108.0;;;16.29;54.19
50652;BME280;66928;52.086;5.240;2023-03-13T14:57:12;99097.0;;;16.28;54.35
50652;BME280;66928;52.086;5.240;2023-03-13T14:58:52;99095.0;;;16.29;54.28
50652;BME280;66928;52.086;5.240;2023-03-13T15:00:36;99068.0;;;16.28;54.18
50652;BME280;66928;52.086;5.240;2023-03-13T15:02:18;99087.0;;;16.14;54.38
50652;BME280;66928;52.086;5.240;2023-03-13T15:03:55;99083.0;;;16.13;54.23
50652;BME280;66928;52.086;5.240;2023-03-13T15:07:09;99081.0;;;16.13;54.95
50652;BME280;66928;52.086;5.240;2023-03-13T15:08:47;99071.0;;;16.16;54.76
50652;BME280;66928;52.086;5.240;2023-03-13T15:10:25;99072.0;;;16.04;54.89
50652;BME280;66928;52.086;5.240;2023-03-13T15:12:13;99071.0;;;16.14;55.0
50652;BME280;66928;52.086;5.240;2023-03-13T15:15:29;99075.0;;;16.14;55.27
50652;BME280;66928;52.086;5.240;2023-03-13T15:17:15;99078.0;;;16.05;55.45
50652;BME280;66928;52.086;5.240;2023-03-13T15:18:55;99071.0;;;16.02;55.47
50652;BME280;66928;52.086;5.240;2023-03-13T15:20:31;99083.0;;;15.96;55.22
50652;BME280;66928;52.086;5.240;2023-03-13T15:23:50;99081.0;;;16.04;54.99
50652;BME280;66928;52.086;5.240;2023-03-13T15:25:28;99073.0;;;16.02;55.28
50652;BME280;66928;52.086;5.240;2023-03-13T15:27:12;99076.0;;;16.14;54.84
50652;BME280;66928;52.086;5.240;2023-03-13T15:28:50;99076.0;;;16.02;55.04
50652;BME280;66928;52.086;5.240;2023-03-13T15:32:02;99074.0;;;16.09;55.05
50652;BME280;66928;52.086;5.240;2023-03-13T15:33:38;99075.0;;;16.03;55.59
50652;BME280;66928;52.086;5.240;2023-03-13T15:35:24;99075.0;;;16.22;55.8
50652;BME280;66928;52.086;5.240;2023-03-13T15:38:37;99072.0;;;16.29;54.95
50652;BME280;66928;52.086;5.240;2023-03-13T15:40:15;99065.0;;;16.06;54.91
50652;BME280;66928;52.086;5.240;2023-03-13T15:41:53;99059.0;;;15.98;55.3
50652;BME280;66928;52.086;5.240;2023-03-13T15:43:29;99056.0;;;15.84;55.26
50652;BME280;66928;52.086;5.240;2023-03-13T15:46:43;99055.0;;;15.88;55.74
50652;BME280;66928;52.086;5.240;2023-03-13T15:48:20;99052.0;;;15.89;55.05
50652;BME280;66928;52.086;5.240;2023-03-13T15:49:57;99044.0;;;15.97;54.7
50652;BME280;66928;52.086;5.240;2023-03-13T15:53:17;99031.0;;;15.98;54.36
50652;BME280;66928;52.086;5.240;2023-03-13T15:54:54;99042.0;;;16.03;54.35
50652;BME280;66928;52.086;5.240;2023-03-13T15:56:33;99030.0;;;15.75;54.12
50652;BME280;66928;52.086;5.240;2023-03-13T15:58:11;99025.0;;;15.82;54.23
50652;BME280;66928;52.086;5.240;2023-03-13T16:01:23;99015.0;;;15.7;54.12
50652;BME280;66928;52.086;5.240;2023-03-13T16:02:59;99013.0;;;15.78;53.92
50652;BME280;66928;52.086;5.240;2023-03-13T16:04:35;99009.0;;;15.87;53.86
50652;BME280;66928;52.086;5.240;2023-03-13T16:07:53;99003.0;;;15.79;54.4
50652;BME280;66928;52.086;5.240;2023-03-13T16:09:29;98994.0;;;15.55;54.38
50652;BME280;66928;52.086;5.240;2023-03-13T16:11:05;98996.0;;;15.62;54.7
50652;BME280;66928;52.086;5.240;2023-03-13T16:14:17;98996.0;;;15.63;54.97
50652;BME280;66928;52.086;5.240;2023-03-13T16:15:53;98991.0;;;15.53;55.02
50652;BME280;66928;52.086;5.240;2023-03-13T16:17:29;98992.0;;;15.63;54.79
50652;BME280;66928;52.086;5.240;2023-03-13T16:19:08;98989.0;;;15.51;55.45
50652;BME280;66928;52.086;5.240;2023-03-13T16:22:22;98998.0;;;15.45;55.53
50652;BME280;66928;52.086;5.240;2023-03-13T16:23:58;98984.0;;;15.43;55.57
50652;BME280;66928;52.086;5.240;2023-03-13T16:25:34;98992.0;;;15.64;55.62
50652;BME280;66928;52.086;5.240;2023-03-13T16:28:50;98980.0;;;15.7;55.93
50652;BME280;66928;52.086;5.240;2023-03-13T16:30:29;98985.0;;;15.57;55.79
50652;BME280;66928;52.086;5.240;2023-03-13T16:32:10;98972.0;;;15.58;55.76
50652;BME280;66928;52.086;5.240;2023-03-13T16:33:48;98985.0;;;15.69;55.54
50652;BME280;66928;52.086;5.240;2023-03-13T16:37:10;98978.0;;;15.55;56.1
50652;BME280;66928;52.086;5.240;2023-03-13T16:38:47;98972.0;;;15.13;56.99
50652;BME280;66928;52.086;5.240;2023-03-13T16:40:26;98982.0;;;15.03;56.89
50652;BME280;66928;52.086;5.240;2023-03-13T16:42:04;98988.0;;;15.03;56.64
50652;BME280;66928;52.086;5.240;2023-03-13T16:45:19;98983.0;;;14.86;57.19
50652;BME280;66928;52.086;5.240;2023-03-13T16:46:55;98985.0;;;14.85;57.39
50652;BME280;66928;52.086;5.240;2023-03-13T16:48:32;98975.0;;;14.9;57.28
50652;BME280;66928;52.086;5.240;2023-03-13T16:52:03;98980.0;;;14.88;57.26
50652;BME280;66928;52.086;5.240;2023-03-13T16:53:39;98973.0;;;14.98;57.09
50652;BME280;66928;52.086;5.240;2023-03-13T16:55:16;98973.0;;;14.76;57.63
50652;BME280;66928;52.086;5.240;2023-03-13T16:56:52;98977.0;;;14.98;57.22
50652;BME280;66928;52.086;5.240;2023-03-13T17:00:12;98971.0;;;14.98;56.98
50652;BME280;66928;52.086;5.240;2023-03-13T17:01:50;98974.0;;;14.86;56.97
50652;BME280;66928;52.086;5.240;2023-03-13T17:03:26;98977.0;;;14.95;57.31
50652;BME280;66928;52.086;5.240;2023-03-13T17:06:40;98984.0;;;14.88;57.4
50652;BME280;66928;52.086;5.240;2023-03-13T17:08:17;98981.0;;;14.62;58.2
50652;BME280;66928;52.086;5.240;2023-03-13T17:09:53;98982.0;;;14.87;57.84
50652;BME280;66928;52.086;5.240;2023-03-13T17:11:29;98984.0;;;14.82;58.04
50652;BME280;66928;52.086;5.240;2023-03-13T17:14:42;98991.0;;;14.54;59.13
50652;BME280;66928;52.086;5.240;2023-03-13T17:16:20;98990.0;;;14.48;59.27
50652;BME280;66928;52.086;5.240;2023-03-13T17:17:56;98994.0;;;14.44;59.32
50652;BME280;66928;52.086;5.240;2023-03-13T17:21:11;99003.0;;;14.61;58.85
50652;BME280;66928;52.086;5.240;2023-03-13T17:22:50;98999.0;;;14.68;58.81
50652;BME280;66928;52.086;5.240;2023-03-13T17:24:27;99007.0;;;14.66;58.95
50652;BME280;66928;52.086;5.240;2023-03-13T17:26:10;99002.0;;;14.5;59.62
50652;BME280;66928;52.086;5.240;2023-03-13T17:29:25;99001.0;;;14.45;59.73
50652;BME280;66928;52.086;5.240;2023-03-13T17:31:01;99001.0;;;14.31;59.83
50652;BME280;66928;52.086;5.240;2023-03-13T17:32:37;99002.0;;;14.47;59.62
50652;BME280;66928;52.086;5.240;2023-03-13T17:35:50;99000.0;;;14.23;60.4
50652;BME280;66928;52.086;5.240;2023-03-13T17:37:26;99006.0;;;14.57;59.44
50652;BME280;66928;52.086;5.240;2023-03-13T17:39:04;98994.0;;;14.24;60.78
50652;BME280;66928;52.086;5.240;2023-03-13T17:40:41;98996.0;;;14.25;60.73
50652;BME280;66928;52.086;5.240;2023-03-13T17:43:54;99005.0;;;14.38;60.54
50652;BME280;66928;52.086;5.240;2023-03-13T17:45:30;98996.0;;;14.38;60.58
50652;BME280;66928;52.086;5.240;2023-03-13T17:47:11;98997.0;;;14.35;60.54
50652;BME280;66928;52.086;5.240;2023-03-13T17:50:27;98990.0;;;14.32;60.79
50652;BME280;66928;52.086;5.240;2023-03-13T17:52:04;98989.0;;;14.38;60.57
50652;BME280;66928;52.086;5.240;2023-03-13T17:53:40;98986.0;;;14.32;60.88